Time;durP1;ratioP1;P1;durP2;ratioP2;P2;SDS_P1;SDS_P2;PMS_P1;PMS_P2;Temp;Humidity;BMP_temperature;BMP_pressure;BME280_temperature;BME280_humidity;BME280_pressure;Samples;Min_cycle;Max_cycle;Signal;HPM_P1;HPM_P2
2022/04/30 00:02:08;;;;;;;3.60;1.70;;;11.40;98.00;;;;;;5115199;28;20822;-74
2022/04/30 00:04:36;;;;;;;1.77;1.53;;;11.30;98.00;;;;;;5115333;28;20449;-73
2022/04/30 00:07:03;;;;;;;3.17;1.90;;;11.10;98.00;;;;;;5115316;28;20506;-72
2022/04/30 00:09:31;;;;;;;2.70;2.00;;;11.10;98.00;;;;;;5097195;28;20485;-71
2022/04/30 00:12:00;;;;;;;3.40;1.30;;;11.00;98.00;;;;;;5115434;28;20766;-73
2022/04/30 00:14:29;;;;;;;4.37;2.10;;;10.90;98.00;;;;;;5114760;28;20456;-74
2022/04/30 00:16:56;;;;;;;2.30;1.73;;;10.90;98.00;;;;;;5115021;28;20454;-74
2022/04/30 00:19:24;;;;;;;1.83;1.63;;;10.90;98.00;;;;;;5114670;28;20468;-72
2022/04/30 00:21:52;;;;;;;3.07;2.17;;;11.10;98.00;;;;;;5114784;28;20485;-73
2022/04/30 00:24:19;;;;;;;2.23;1.70;;;11.10;98.00;;;;;;5114611;28;20461;-72
2022/04/30 00:26:47;;;;;;;2.87;1.73;;;11.20;98.00;;;;;;5114777;28;20459;-73
2022/04/30 00:29:16;;;;;;;1.60;1.40;;;11.10;98.00;;;;;;5114680;28;20454;-72
2022/04/30 00:31:44;;;;;;;2.37;1.83;;;11.10;98.00;;;;;;5114669;28;20453;-73
2022/04/30 00:34:11;;;;;;;2.57;2.13;;;11.10;98.00;;;;;;5114560;28;20456;-73
2022/04/30 00:36:38;;;;;;;4.37;2.50;;;10.90;98.00;;;;;;5114426;28;20452;-73
2022/04/30 00:39:06;;;;;;;2.80;2.00;;;11.00;98.00;;;;;;5114241;28;20843;-73
2022/04/30 00:41:33;;;;;;;4.40;2.00;;;11.00;98.00;;;;;;5114292;28;20476;-71
2022/04/30 00:44:01;;;;;;;2.30;1.93;;;11.10;98.00;;;;;;5114252;28;20453;-73
2022/04/30 00:46:30;;;;;;;2.30;1.80;;;11.10;98.00;;;;;;5114281;28;20498;-72
2022/04/30 00:48:58;;;;;;;3.00;1.53;;;11.10;98.00;;;;;;5114173;28;20467;-72
2022/04/30 00:51:28;;;;;;;2.10;1.70;;;11.10;98.00;;;;;;5114143;28;20506;-72
2022/04/30 00:53:57;;;;;;;2.60;2.07;;;11.10;98.00;;;;;;5079517;28;20457;-72
2022/04/30 00:56:29;;;;;;;1.97;1.87;;;11.20;98.00;;;;;;5114263;28;20600;-73
2022/04/30 00:58:57;;;;;;;2.90;2.07;;;11.20;98.00;;;;;;5114112;28;20789;-72
2022/04/30 01:01:25;;;;;;;2.10;1.80;;;11.20;98.00;;;;;;5114007;28;20568;-71
2022/04/30 01:03:53;;;;;;;3.00;1.73;;;11.20;98.00;;;;;;5113999;28;20462;-72
2022/04/30 01:06:31;;;;;;;2.13;1.80;;;11.30;98.00;;;;;;5113981;28;20460;-72
2022/04/30 01:08:59;;;;;;;2.80;2.13;;;11.20;98.00;;;;;;5113966;28;20488;-72
2022/04/30 01:11:27;;;;;;;2.37;1.87;;;11.20;98.00;;;;;;5114256;28;20448;-71
2022/04/30 01:13:54;;;;;;;2.37;1.80;;;11.20;98.00;;;;;;5113894;28;20449;-73
2022/04/30 01:16:22;;;;;;;2.63;1.87;;;11.30;98.00;;;;;;5095772;28;20472;-72
2022/04/30 01:18:49;;;;;;;2.27;1.83;;;11.40;98.00;;;;;;5113336;28;20446;-74
2022/04/30 01:21:20;;;;;;;3.97;2.10;;;11.40;98.00;;;;;;5113633;28;20478;-74
2022/04/30 01:23:49;;;;;;;3.87;2.23;;;11.30;98.00;;;;;;5113724;28;20505;-72
2022/04/30 01:26:17;;;;;;;3.50;2.07;;;11.10;98.00;;;;;;5112920;28;20842;-72
2022/04/30 01:28:47;;;;;;;1.73;1.63;;;11.10;98.00;;;;;;5113495;28;20452;-73
2022/04/30 01:39:31;;;;;;;3.73;1.70;;;11.00;98.00;;;;;;5113138;28;20502;-73
2022/04/30 01:42:11;;;;;;;2.40;1.70;;;11.10;98.00;;;;;;5113083;28;20600;-74
2022/04/30 01:44:40;;;;;;;2.67;1.77;;;11.10;98.00;;;;;;5112995;28;20526;-74
2022/04/30 01:47:08;;;;;;;2.20;2.00;;;10.90;98.00;;;;;;5112880;28;20456;-72
2022/04/30 01:49:35;;;;;;;3.80;2.50;;;10.90;98.00;;;;;;5095131;28;20479;-74
2022/04/30 01:52:07;;;;;;;2.70;2.00;;;11.00;98.00;;;;;;5112972;28;20457;-74
2022/04/30 01:54:36;;;;;;;2.00;1.50;;;11.00;98.00;;;;;;5112966;28;20550;-72
2022/04/30 01:57:04;;;;;;;4.83;2.30;;;10.90;98.00;;;;;;5112969;28;21011;-73
2022/04/30 01:59:32;;;;;;;4.00;2.30;;;11.00;98.00;;;;;;5094906;28;20476;-74
2022/04/30 02:02:02;;;;;;;2.57;1.90;;;10.90;98.00;;;;;;5112792;28;21000;-73
2022/04/30 02:04:31;;;;;;;4.57;2.30;;;10.80;98.00;;;;;;5112909;28;20463;-73
2022/04/30 02:07:00;;;;;;;3.07;1.90;;;10.70;98.00;;;;;;5112564;28;20497;-73
2022/04/30 02:09:28;;;;;;;2.10;1.90;;;10.70;98.00;;;;;;5112890;28;20508;-73
2022/04/30 02:11:59;;;;;;;2.63;1.80;;;10.70;98.00;;;;;;5113031;28;20476;-73
2022/04/30 02:14:30;;;;;;;5.97;2.20;;;10.80;98.00;;;;;;5112870;28;20548;-72
2022/04/30 02:16:58;;;;;;;3.30;2.73;;;10.80;98.00;;;;;;5112956;28;20856;-72
2022/04/30 02:19:28;;;;;;;2.17;1.70;;;11.00;98.00;;;;;;5094283;28;20455;-74
2022/04/30 02:21:58;;;;;;;2.27;2.07;;;11.10;98.00;;;;;;5112574;28;20488;-72
2022/04/30 02:24:27;;;;;;;2.23;1.80;;;11.00;98.00;;;;;;5112330;28;20445;-72
2022/04/30 02:26:54;;;;;;;3.30;2.13;;;10.90;98.00;;;;;;5111892;28;21102;-75
2022/04/30 02:29:24;;;;;;;2.17;1.83;;;10.90;98.00;;;;;;5111760;28;20528;-73
2022/04/30 02:31:54;;;;;;;2.37;2.03;;;10.90;98.00;;;;;;5111741;28;20449;-73
2022/04/30 02:34:21;;;;;;;7.87;2.37;;;10.80;98.00;;;;;;5112026;28;20538;-73
2022/04/30 02:36:48;;;;;;;2.80;1.93;;;10.70;98.00;;;;;;5094352;28;20955;-74
2022/04/30 02:39:16;;;;;;;3.87;2.60;;;10.60;98.00;;;;;;5112084;28;20457;-72
2022/04/30 02:41:44;;;;;;;3.73;2.33;;;10.60;98.00;;;;;;5112429;28;20488;-72
2022/04/30 02:44:11;;;;;;;3.10;2.17;;;10.60;98.00;;;;;;5112177;28;20449;-72
2022/04/30 02:46:40;;;;;;;2.47;2.10;;;10.70;98.00;;;;;;5112301;28;20460;-74
2022/04/30 02:49:07;;;;;;;4.43;2.17;;;10.70;98.00;;;;;;5112266;28;20861;-72
2022/04/30 02:51:34;;;;;;;2.10;1.60;;;10.80;98.00;;;;;;5094272;28;20466;-74
2022/04/30 02:54:01;;;;;;;3.23;2.30;;;10.90;98.00;;;;;;5112215;28;20464;-74
2022/04/30 02:56:29;;;;;;;2.73;2.10;;;10.90;98.00;;;;;;5112227;28;20454;-74
2022/04/30 03:01:47;;;;;;;2.07;1.67;;;10.80;98.00;;;;;;5112212;28;20564;-72
2022/04/30 03:04:17;;;;;;;2.50;2.17;;;10.70;98.00;;;;;;5112155;28;20799;-73
2022/04/30 03:06:46;;;;;;;2.30;1.80;;;10.70;98.00;;;;;;5112392;28;20465;-72
2022/04/30 03:09:13;;;;;;;3.37;2.00;;;10.80;98.00;;;;;;5112043;28;20938;-72
2022/04/30 03:11:40;;;;;;;2.33;1.60;;;10.80;98.00;;;;;;5112375;28;20516;-72
2022/04/30 03:14:07;;;;;;;3.50;2.20;;;10.90;98.00;;;;;;5112437;28;20542;-72
2022/04/30 03:22:11;;;;;;;1.43;1.40;;;10.70;98.00;;;;;;5052842;28;20477;-74
2022/04/30 03:24:38;;;;;;;5.67;1.90;;;10.70;98.00;;;;;;5035989;28;20446;-74
2022/04/30 03:27:06;;;;;;;2.37;1.80;;;10.80;98.00;;;;;;5101824;28;20968;-72
2022/04/30 03:29:33;;;;;;;1.50;1.40;;;10.90;98.00;;;;;;5115781;28;20453;-73
2022/04/30 03:32:01;;;;;;;2.73;2.13;;;10.90;98.00;;;;;;5097740;28;20511;-74
2022/04/30 03:34:32;;;;;;;3.53;2.43;;;10.90;98.00;;;;;;5115543;28;20465;-73
2022/04/30 03:36:59;;;;;;;3.47;2.33;;;10.90;98.00;;;;;;5098006;28;20466;-72
2022/04/30 03:39:27;;;;;;;2.77;1.97;;;10.80;98.00;;;;;;5115411;28;20507;-73
2022/04/30 03:41:54;;;;;;;2.20;1.53;;;10.80;98.00;;;;;;5097534;28;20496;-71
2022/04/30 03:44:21;;;;;;;1.80;1.60;;;10.90;98.00;;;;;;5115538;28;20457;-73
2022/04/30 03:46:48;;;;;;;3.87;2.17;;;11.00;98.00;;;;;;5115471;28;20536;-72
2022/04/30 03:49:15;;;;;;;2.30;1.70;;;11.00;98.00;;;;;;5097338;28;20460;-73
2022/04/30 03:51:45;;;;;;;2.00;1.80;;;11.10;98.00;;;;;;5115346;28;20513;-72
2022/04/30 03:54:12;;;;;;;6.60;2.90;;;11.20;98.00;;;;;;5115150;28;20820;-73
2022/04/30 03:56:39;;;;;;;4.73;2.37;;;11.10;98.00;;;;;;5115171;28;20446;-73
2022/04/30 03:59:06;;;;;;;4.23;2.63;;;11.20;98.00;;;;;;5115281;28;20464;-71
2022/04/30 04:01:35;;;;;;;2.43;2.27;;;11.30;98.00;;;;;;5115102;28;20480;-72
2022/04/30 04:04:02;;;;;;;5.53;2.73;;;11.30;98.00;;;;;;5097351;28;20447;-75
2022/04/30 04:06:30;;;;;;;3.80;2.57;;;11.30;98.00;;;;;;5097254;28;20500;-73
2022/04/30 04:08:59;;;;;;;3.37;2.40;;;11.30;98.00;;;;;;5115145;28;20945;-73
2022/04/30 04:11:27;;;;;;;4.80;2.60;;;11.20;98.00;;;;;;5097498;28;20462;-72
2022/04/30 04:19:26;;;;;;;3.90;2.60;;;11.20;98.00;;;;;;5114772;28;20440;-72
2022/04/30 04:21:53;;;;;;;3.33;2.80;;;11.30;98.00;;;;;;5114828;28;20479;-74
2022/04/30 04:27:06;;;;;;;2.90;2.70;;;11.50;98.00;;;;;;5114690;28;20977;-74
2022/04/30 04:29:33;;;;;;;6.13;2.13;;;11.40;98.00;;;;;;5114655;28;20461;-73
2022/04/30 04:32:00;;;;;;;6.40;2.53;;;11.30;98.00;;;;;;5096229;28;20459;-73
2022/04/30 04:34:27;;;;;;;3.60;2.50;;;11.40;98.00;;;;;;5114632;28;20457;-74
2022/04/30 04:36:56;;;;;;;2.47;2.07;;;11.50;98.00;;;;;;5114582;28;20462;-73
2022/04/30 04:39:24;;;;;;;3.27;2.03;;;11.50;98.00;;;;;;5114429;28;20817;-73
2022/04/30 04:41:51;;;;;;;3.50;1.97;;;11.60;98.00;;;;;;5114505;28;20498;-74
2022/04/30 04:44:21;;;;;;;3.47;2.70;;;11.70;98.00;;;;;;5114482;28;20530;-71
2022/04/30 04:46:49;;;;;;;2.30;1.63;;;11.90;98.00;;;;;;5114556;28;20503;-72
2022/04/30 04:49:16;;;;;;;6.93;2.70;;;11.90;98.00;;;;;;5114226;28;20455;-72
2022/04/30 04:51:43;;;;;;;2.37;2.17;;;12.00;98.00;;;;;;5114315;28;20462;-72
2022/04/30 04:54:11;;;;;;;2.23;1.87;;;12.00;98.00;;;;;;5114339;28;20484;-73
2022/04/30 04:56:42;;;;;;;4.60;2.60;;;12.00;98.00;;;;;;5096323;28;20468;-75
2022/04/30 04:59:09;;;;;;;3.27;1.90;;;12.00;98.00;;;;;;5114297;28;20548;-72
2022/04/30 05:01:38;;;;;;;2.70;1.57;;;12.10;98.00;;;;;;5113946;28;20492;-74
2022/04/30 05:04:05;;;;;;;2.20;2.00;;;12.20;98.00;;;;;;5114076;28;20461;-73
2022/04/30 05:06:32;;;;;;;4.50;2.27;;;12.20;98.00;;;;;;5114304;28;20505;-72
2022/04/30 05:08:59;;;;;;;4.37;2.97;;;12.30;98.00;;;;;;5113972;28;20510;-72
2022/04/30 05:11:26;;;;;;;2.33;1.73;;;12.40;98.00;;;;;;5114348;28;20456;-73
2022/04/30 05:13:54;;;;;;;5.80;2.77;;;12.20;98.00;;;;;;5113738;28;20877;-71
2022/04/30 05:16:22;;;;;;;3.73;2.80;;;12.10;98.00;;;;;;5113987;28;20463;-72
2022/04/30 05:18:49;;;;;;;2.43;2.17;;;12.10;98.00;;;;;;5095505;28;20799;-74
2022/04/30 05:21:16;;;;;;;3.10;2.13;;;12.20;98.00;;;;;;5113897;28;20446;-74
2022/04/30 05:23:43;;;;;;;3.30;2.10;;;12.10;98.00;;;;;;5113387;28;21030;-73
2022/04/30 05:26:10;;;;;;;3.90;2.67;;;12.10;98.00;;;;;;5113526;28;20448;-73
2022/04/30 05:28:37;;;;;;;5.30;3.53;;;12.00;98.00;;;;;;5113718;28;20842;-71
2022/04/30 05:31:07;;;;;;;4.30;2.47;;;12.10;98.00;;;;;;5113165;28;20458;-71
2022/04/30 05:33:35;;;;;;;7.93;3.03;;;12.20;98.00;;;;;;5113587;28;20486;-73
2022/04/30 05:36:03;;;;;;;2.40;1.80;;;12.20;98.00;;;;;;5113374;28;20533;-73
2022/04/30 05:38:30;;;;;;;3.37;2.53;;;12.30;98.00;;;;;;5095186;28;20466;-71
2022/04/30 05:40:57;;;;;;;3.23;2.57;;;12.30;98.00;;;;;;5113491;28;20458;-72
2022/04/30 05:43:24;;;;;;;3.87;2.43;;;12.20;98.00;;;;;;5094557;28;20479;-73
2022/04/30 05:45:51;;;;;;;3.17;2.20;;;12.10;98.00;;;;;;5113018;28;20455;-73
2022/04/30 05:48:19;;;;;;;2.73;2.00;;;12.10;98.00;;;;;;5113300;28;20472;-73
2022/04/30 05:50:47;;;;;;;3.13;2.00;;;12.20;98.00;;;;;;5113017;28;20452;-71
2022/04/30 05:53:14;;;;;;;3.20;2.10;;;12.30;98.00;;;;;;5113680;28;20511;-72
2022/04/30 05:55:41;;;;;;;4.33;2.67;;;12.30;98.00;;;;;;5113202;28;20884;-73
2022/04/30 05:58:08;;;;;;;2.13;1.80;;;12.40;98.00;;;;;;5113189;28;20461;-72
2022/04/30 06:00:35;;;;;;;2.07;1.93;;;12.30;98.00;;;;;;5113031;28;20454;-74
2022/04/30 06:03:04;;;;;;;3.20;2.03;;;12.40;98.00;;;;;;5112868;28;20535;-71
2022/04/30 06:05:33;;;;;;;1.90;1.70;;;12.50;98.00;;;;;;5094917;28;20455;-71
2022/04/30 06:08:00;;;;;;;2.93;2.30;;;12.60;98.00;;;;;;5112548;28;20463;-75
2022/04/30 06:10:27;;;;;;;2.00;1.93;;;12.60;98.00;;;;;;5112998;28;20511;-74
2022/04/30 06:12:54;;;;;;;4.90;2.50;;;12.60;98.00;;;;;;5112839;28;20452;-73
2022/04/30 06:15:21;;;;;;;2.90;2.43;;;12.40;98.00;;;;;;5112619;28;20822;-74
2022/04/30 06:17:48;;;;;;;2.67;2.27;;;12.40;98.00;;;;;;5094789;28;20447;-74
2022/04/30 06:20:15;;;;;;;3.47;2.70;;;12.50;98.00;;;;;;5112516;28;20450;-73
2022/04/30 06:22:44;;;;;;;3.37;2.73;;;12.60;98.00;;;;;;5112757;28;20512;-73
2022/04/30 06:25:11;;;;;;;3.60;2.47;;;12.70;98.00;;;;;;5112337;28;20811;-74
2022/04/30 06:27:39;;;;;;;4.50;2.60;;;12.80;98.00;;;;;;5112603;28;20467;-74
2022/04/30 06:30:07;;;;;;;4.63;3.20;;;12.90;98.00;;;;;;5112370;28;20468;-72
2022/04/30 06:32:35;;;;;;;2.90;2.40;;;12.90;98.00;;;;;;5112520;28;20464;-74
2022/04/30 06:35:03;;;;;;;4.83;2.10;;;12.80;98.00;;;;;;5112368;28;20455;-75
2022/04/30 06:37:30;;;;;;;2.23;2.10;;;12.80;98.00;;;;;;5112218;28;20496;-72
2022/04/30 06:39:58;;;;;;;2.17;1.90;;;12.90;98.00;;;;;;5112393;28;20462;-73
2022/04/30 06:42:25;;;;;;;2.53;2.27;;;13.00;98.00;;;;;;5112412;28;20533;-73
2022/04/30 06:44:54;;;;;;;6.90;2.90;;;13.00;98.00;;;;;;5094367;28;20464;-74
2022/04/30 06:47:24;;;;;;;2.40;2.03;;;13.00;98.00;;;;;;5112444;28;20450;-73
2022/04/30 06:49:51;;;;;;;3.53;2.60;;;13.20;98.00;;;;;;5112390;28;20591;-72
2022/04/30 06:52:18;;;;;;;5.17;2.80;;;13.30;98.00;;;;;;5112362;28;20448;-74
2022/04/30 06:57:33;;;;;;;3.70;2.33;;;13.60;98.00;;;;;;5101329;28;20453;-72
2022/04/30 07:00:39;;;;;;;3.57;2.40;;;13.70;98.00;;;;;;5116601;28;20582;-73
2022/04/30 07:02:47;;;;;;;3.20;2.63;;;13.60;98.00;;;;;;5116319;28;20880;-71
2022/04/30 07:05:13;;;;;;;2.67;2.13;;;13.50;98.00;;;;;;5116461;28;20487;-74
2022/04/30 07:07:41;;;;;;;3.47;3.07;;;13.60;98.00;;;;;;5116438;28;21039;-74
2022/04/30 07:10:09;;;;;;;2.53;2.13;;;13.30;98.00;;;;;;5116405;28;20455;-72
2022/04/30 07:12:37;;;;;;;4.37;2.67;;;13.50;98.00;;;;;;5098189;28;20995;-75
2022/04/30 07:15:05;;;;;;;5.37;2.57;;;13.40;98.00;;;;;;5116177;28;20454;-72
2022/04/30 07:17:32;;;;;;;9.33;2.80;;;13.40;98.00;;;;;;5116159;28;20450;-75
2022/04/30 07:19:59;;;;;;;4.40;2.93;;;13.60;98.00;;;;;;5115946;28;20855;-73
2022/04/30 07:22:26;;;;;;;4.37;2.40;;;13.70;98.00;;;;;;5116007;28;20451;-74
2022/04/30 07:24:55;;;;;;;2.10;1.97;;;13.60;98.00;;;;;;5116230;28;20457;-73
2022/04/30 07:27:22;;;;;;;4.47;2.70;;;13.70;98.00;;;;;;5115892;28;20526;-73
2022/04/30 07:29:50;;;;;;;3.17;2.03;;;13.70;98.00;;;;;;5116024;28;20454;-74
2022/04/30 07:32:20;;;;;;;3.37;2.80;;;13.50;98.00;;;;;;5115899;28;20451;-72
2022/04/30 07:34:47;;;;;;;2.47;2.17;;;13.50;98.00;;;;;;5116020;28;20936;-73
2022/04/30 07:37:14;;;;;;;3.80;2.23;;;13.50;98.00;;;;;;5097649;28;20510;-73
2022/04/30 07:39:41;;;;;;;4.63;2.43;;;13.60;98.00;;;;;;5115743;28;20453;-73
2022/04/30 07:42:10;;;;;;;3.33;1.97;;;13.60;98.00;;;;;;5116024;28;20944;-74
2022/04/30 07:44:37;;;;;;;4.17;2.50;;;13.60;98.00;;;;;;5115456;28;20534;-73
2022/04/30 07:47:06;;;;;;;2.07;1.90;;;13.60;98.00;;;;;;5115046;28;20469;-75
2022/04/30 07:49:33;;;;;;;2.70;2.37;;;13.40;98.00;;;;;;5114551;28;20463;-74
2022/04/30 07:52:00;;;;;;;4.87;3.13;;;13.30;98.00;;;;;;5114707;28;20447;-71
2022/04/30 07:54:27;;;;;;;2.67;2.23;;;13.20;98.00;;;;;;5114638;28;20477;-74
2022/04/30 07:56:56;;;;;;;4.60;1.93;;;13.20;98.00;;;;;;5114863;28;20487;-74
2022/04/30 07:59:24;;;;;;;2.67;1.90;;;13.30;98.00;;;;;;5114454;28;20982;-73
2022/04/30 08:01:51;;;;;;;3.73;2.50;;;13.40;98.00;;;;;;5114576;28;21025;-73
2022/04/30 08:04:20;;;;;;;5.50;3.37;;;13.30;98.00;;;;;;5114029;28;20490;-75
2022/04/30 08:06:48;;;;;;;3.70;2.77;;;13.40;98.00;;;;;;5113365;28;20455;-74
2022/04/30 08:09:16;;;;;;;2.40;2.10;;;13.30;98.00;;;;;;5114312;27;20952;-72
2022/04/30 08:14:27;;;;;;;4.63;3.13;;;13.30;98.00;;;;;;5115692;27;20830;-73
2022/04/30 08:16:54;;;;;;;3.37;2.90;;;13.30;98.00;;;;;;5114092;27;20537;-76
2022/04/30 08:19:23;;;;;;;5.13;1.87;;;13.20;98.00;;;;;;5131519;27;20492;-77
2022/04/30 08:21:50;;;;;;;3.87;1.50;;;13.30;98.00;;;;;;5131513;27;20458;-75
2022/04/30 08:24:17;;;;;;;4.90;2.70;;;13.40;98.00;;;;;;5131231;27;21235;-72
2022/04/30 08:26:46;;;;;;;2.90;2.37;;;13.40;98.00;;;;;;5131724;27;20809;-74
2022/04/30 08:29:13;;;;;;;5.47;3.43;;;13.40;98.00;;;;;;5131615;27;20457;-75
2022/04/30 08:31:40;;;;;;;4.30;2.60;;;13.40;98.00;;;;;;5113425;27;20457;-76
2022/04/30 08:34:07;;;;;;;5.03;3.27;;;13.30;98.00;;;;;;5134122;27;20456;-73
2022/04/30 08:36:36;;;;;;;3.10;2.60;;;13.40;98.00;;;;;;5134472;27;20825;-73
2022/04/30 08:39:03;;;;;;;3.40;2.47;;;13.50;98.00;;;;;;5132410;27;20469;-73
2022/04/30 08:41:30;;;;;;;5.13;2.90;;;13.70;98.00;;;;;;5134419;27;20463;-74
2022/04/30 08:43:57;;;;;;;2.77;2.07;;;13.70;98.00;;;;;;5134259;27;20482;-73
2022/04/30 08:46:24;;;;;;;2.10;1.80;;;13.70;98.00;;;;;;5134132;27;20459;-72
2022/04/30 08:48:54;;;;;;;4.20;2.30;;;13.60;98.00;;;;;;5134151;27;20456;-75
2022/04/30 08:51:21;;;;;;;3.07;1.80;;;13.50;98.00;;;;;;5134202;27;20504;-73
2022/04/30 08:53:50;;;;;;;3.57;2.93;;;13.50;98.00;;;;;;5134132;27;20460;-73
2022/04/30 08:56:17;;;;;;;3.10;2.10;;;13.60;98.00;;;;;;5115304;27;20465;-73
2022/04/30 08:58:44;;;;;;;3.13;2.30;;;13.50;98.00;;;;;;5134030;27;20465;-75
2022/04/30 09:01:11;;;;;;;3.20;1.73;;;13.50;98.00;;;;;;5133853;27;20512;-73
2022/04/30 09:03:39;;;;;;;3.47;2.20;;;13.40;98.00;;;;;;5115740;27;20971;-73
2022/04/30 09:06:06;;;;;;;4.40;2.80;;;13.40;98.00;;;;;;5133770;27;20462;-73
2022/04/30 09:08:35;;;;;;;2.70;1.87;;;13.30;98.00;;;;;;5133859;27;20551;-73
2022/04/30 09:11:07;;;;;;;2.30;2.10;;;13.30;98.00;;;;;;5133647;27;20564;-73
2022/04/30 09:13:43;;;;;;;4.73;2.27;;;13.30;98.00;;;;;;5133841;27;20794;-73
2022/04/30 09:16:19;;;;;;;1.70;1.60;;;13.10;98.00;;;;;;5133388;27;20485;-73
2022/04/30 09:18:46;;;;;;;2.43;1.90;;;12.90;98.00;;;;;;5132892;27;20487;-72
2022/04/30 09:21:24;;;;;;;4.03;2.50;;;12.80;98.00;;;;;;5133785;27;20458;-73
2022/04/30 09:23:51;;;;;;;3.43;2.90;;;12.70;98.00;;;;;;5133661;27;20477;-75
2022/04/30 09:26:19;;;;;;;5.20;3.27;;;12.60;98.00;;;;;;5133481;27;20456;-74
2022/04/30 09:28:48;;;;;;;4.10;2.80;;;12.60;98.00;;;;;;5133466;27;20467;-74
2022/04/30 09:31:18;;;;;;;4.73;2.50;;;12.60;98.00;;;;;;5115182;27;20489;-74
2022/04/30 09:33:55;;;;;;;2.17;2.00;;;12.60;98.00;;;;;;5133271;27;20465;-75
2022/04/30 09:39:12;;;;;;;2.50;2.20;;;12.60;98.00;;;;;;5132939;27;20451;-75
2022/04/30 09:41:40;;;;;;;4.67;3.07;;;12.80;98.00;;;;;;5133195;27;20482;-73
2022/04/30 09:44:09;;;;;;;2.43;2.23;;;12.80;98.00;;;;;;5133020;27;20886;-74
2022/04/30 09:46:37;;;;;;;2.80;2.10;;;13.00;98.00;;;;;;5133086;27;20465;-73
2022/04/30 09:54:36;;;;;;;3.53;2.37;;;13.00;98.00;;;;;;5132999;27;20817;-75
2022/04/30 09:57:07;;;;;;;2.57;2.43;;;13.00;98.00;;;;;;5132997;27;20888;-75
2022/04/30 09:59:36;;;;;;;2.97;2.50;;;12.90;98.00;;;;;;5114875;27;20453;-74
2022/04/30 10:02:06;;;;;;;1.80;1.70;;;13.00;98.00;;;;;;5132752;27;20459;-73
2022/04/30 10:04:34;;;;;;;3.10;2.13;;;12.80;98.00;;;;;;5114438;27;20545;-73
2022/04/30 10:07:02;;;;;;;2.37;2.17;;;12.70;98.00;;;;;;5116884;27;20806;-74
2022/04/30 10:09:35;;;;;;;2.13;1.67;;;12.70;98.00;;;;;;5112005;28;20455;-75
2022/04/30 10:12:09;;;;;;;3.57;2.23;;;12.70;98.00;;;;;;5112143;28;20464;-76
2022/04/30 10:14:47;;;;;;;2.70;2.27;;;12.70;98.00;;;;;;5111972;28;20869;-73
2022/04/30 10:17:19;;;;;;;2.53;2.33;;;12.80;98.00;;;;;;5112067;28;20528;-73
2022/04/30 10:19:57;;;;;;;2.70;2.50;;;13.00;98.00;;;;;;5112168;28;20511;-73
2022/04/30 10:22:24;;;;;;;3.30;2.40;;;13.10;98.00;;;;;;5112405;28;20501;-74
2022/04/30 10:24:56;;;;;;;4.43;2.60;;;13.00;98.00;;;;;;5111822;28;20480;-73
2022/04/30 10:27:23;;;;;;;4.80;2.57;;;13.10;98.00;;;;;;5112007;28;20488;-74
2022/04/30 10:29:57;;;;;;;1.60;1.57;;;13.20;98.00;;;;;;5111532;28;20459;-74
2022/04/30 10:32:28;;;;;;;2.30;1.70;;;13.40;98.00;;;;;;5111882;28;20458;-74
2022/04/30 10:34:56;;;;;;;1.80;1.60;;;13.40;98.00;;;;;;5111643;28;20992;-73
2022/04/30 10:37:34;;;;;;;1.60;1.53;;;13.40;98.00;;;;;;5093149;28;20472;-74
2022/04/30 10:40:06;;;;;;;1.77;1.53;;;13.40;98.00;;;;;;5111559;28;20450;-74
2022/04/30 10:42:40;;;;;;;1.87;1.80;;;13.10;98.00;;;;;;5111808;28;20543;-74
2022/04/30 10:45:13;;;;;;;1.70;1.40;;;13.10;98.00;;;;;;5111631;28;20885;-73
2022/04/30 10:47:50;;;;;;;1.53;1.20;;;13.10;98.00;;;;;;5111724;28;20463;-74
2022/04/30 10:50:17;;;;;;;1.70;1.17;;;13.00;98.00;;;;;;5111721;28;20489;-74
2022/04/30 10:52:47;;;;;;;2.13;1.20;;;13.00;98.00;;;;;;5111668;28;20454;-73
2022/04/30 10:55:15;;;;;;;3.20;1.77;;;13.10;98.00;;;;;;5093661;28;20453;-75
2022/04/30 10:57:42;;;;;;;1.90;1.43;;;13.10;98.00;;;;;;5111704;28;20817;-73
2022/04/30 11:00:12;;;;;;;1.60;1.50;;;13.10;98.00;;;;;;5111364;28;20451;-74
2022/04/30 11:02:39;;;;;;;2.97;1.40;;;13.00;98.00;;;;;;5111535;28;20454;-74
2022/04/30 11:05:18;;;;;;;2.07;1.50;;;12.90;98.00;;;;;;5110898;28;20480;-73
2022/04/30 11:07:46;;;;;;;3.63;2.20;;;12.80;98.00;;;;;;5111445;28;20832;-73
2022/04/30 11:10:14;;;;;;;2.40;1.50;;;12.80;98.00;;;;;;5111582;28;20518;-74
2022/04/30 11:12:41;;;;;;;3.40;1.63;;;12.80;98.00;;;;;;5111432;28;20457;-74
2022/04/30 11:15:11;;;;;;;1.60;1.50;;;12.80;98.00;;;;;;5111464;28;20479;-74
2022/04/30 11:17:46;;;;;;;1.53;1.27;;;12.80;98.00;;;;;;5111746;28;20456;-74
2022/04/30 11:20:22;;;;;;;1.50;1.40;;;12.70;98.00;;;;;;5112399;28;20963;-74
2022/04/30 11:22:54;;;;;;;1.93;1.60;;;12.70;98.00;;;;;;5094095;28;20482;-74
2022/04/30 11:25:21;;;;;;;4.20;1.60;;;12.70;98.00;;;;;;5112359;28;20477;-74
2022/04/30 11:27:48;;;;;;;1.67;1.63;;;12.70;98.00;;;;;;5110957;28;20461;-74
2022/04/30 11:30:20;;;;;;;1.50;1.40;;;12.60;98.00;;;;;;5111460;28;20464;-74
2022/04/30 11:32:49;;;;;;;2.20;2.03;;;12.80;98.00;;;;;;5111401;28;20828;-73
2022/04/30 11:35:17;;;;;;;1.50;1.47;;;12.80;98.00;;;;;;5111235;28;20448;-74
2022/04/30 11:37:44;;;;;;;2.00;1.47;;;12.90;98.00;;;;;;5092988;28;20520;-74
2022/04/30 11:40:12;;;;;;;1.40;1.23;;;13.00;98.00;;;;;;5111831;28;20457;-73
2022/04/30 11:42:40;;;;;;;3.40;1.77;;;13.10;98.00;;;;;;5115301;28;20498;-74
2022/04/30 11:45:08;;;;;;;2.80;1.67;;;13.20;98.00;;;;;;5114850;28;20483;-74
2022/04/30 11:47:42;;;;;;;1.63;1.60;;;13.10;98.00;;;;;;5114951;28;20471;-74
2022/04/30 11:50:12;;;;;;;1.87;1.47;;;13.20;98.00;;;;;;5096959;28;20985;-74
2022/04/30 11:52:39;;;;;;;2.60;1.53;;;13.20;98.00;;;;;;5096925;28;20458;-74
2022/04/30 11:55:09;;;;;;;1.70;1.30;;;13.20;98.00;;;;;;5114712;28;20819;-74
2022/04/30 11:57:41;;;;;;;1.40;1.30;;;13.20;98.00;;;;;;5096502;28;20462;-74
2022/04/30 12:00:09;;;;;;;5.33;1.87;;;13.20;98.00;;;;;;5115033;28;20452;-71
2022/04/30 12:02:39;;;;;;;1.63;1.37;;;13.20;98.00;;;;;;5114559;28;20469;-73
2022/04/30 12:05:10;;;;;;;2.10;1.77;;;13.40;98.00;;;;;;5096783;28;20495;-73
2022/04/30 12:07:38;;;;;;;2.53;1.87;;;13.50;98.00;;;;;;5114546;28;20480;-73
2022/04/30 12:10:16;;;;;;;2.37;1.40;;;13.50;98.00;;;;;;5114457;28;20457;-72
2022/04/30 12:12:44;;;;;;;1.30;1.20;;;13.50;98.00;;;;;;5096399;28;20964;-74
2022/04/30 12:15:19;;;;;;;1.30;1.20;;;13.60;98.00;;;;;;5114280;28;20505;-73
2022/04/30 12:24:40;;;;;;;1.50;1.43;;;13.60;98.00;;;;;;5114616;28;20541;-73
2022/04/30 12:26:11;;;;;;;1.40;1.20;;;13.90;98.00;;;;;;5114897;28;20495;-73
2022/04/30 12:28:46;;;;;;;1.70;1.30;;;13.90;98.00;;;;;;5114824;28;20451;-73
2022/04/30 12:31:13;;;;;;;2.07;1.40;;;14.00;98.00;;;;;;5114725;28;20529;-73
2022/04/30 12:33:46;;;;;;;1.67;1.30;;;14.10;98.00;;;;;;5114629;28;20458;-74
2022/04/30 12:36:14;;;;;;;2.13;1.30;;;14.40;98.00;;;;;;5114292;28;20553;-73
2022/04/30 12:38:41;;;;;;;1.33;1.33;;;14.80;98.00;;;;;;5096495;28;20570;-73
2022/04/30 12:41:08;;;;;;;1.50;1.40;;;15.10;98.00;;;;;;5096011;28;20455;-72
2022/04/30 12:43:37;;;;;;;1.63;1.57;;;15.30;98.00;;;;;;5114642;28;20455;-72
2022/04/30 12:46:05;;;;;;;1.60;1.23;;;15.40;98.00;;;;;;5114289;28;20541;-72
2022/04/30 12:48:34;;;;;;;1.40;1.30;;;15.50;98.00;;;;;;5114131;28;20449;-72
2022/04/30 12:51:06;;;;;;;1.70;1.60;;;15.60;98.00;;;;;;5113297;28;20532;-73
2022/04/30 12:53:33;;;;;;;1.73;1.50;;;15.90;98.00;;;;;;5113674;28;20460;-72
2022/04/30 12:56:00;;;;;;;3.43;2.07;;;15.90;98.00;;;;;;5113400;28;20455;-73
2022/04/30 12:58:27;;;;;;;3.33;1.83;;;15.90;98.00;;;;;;5113457;28;20464;-72
2022/04/30 13:00:54;;;;;;;1.97;1.57;;;15.90;98.00;;;;;;5113263;28;20508;-72
2022/04/30 13:03:22;;;;;;;1.20;1.00;;;15.90;98.00;;;;;;5113570;28;20452;-72
2022/04/30 13:05:49;;;;;;;1.77;1.63;;;15.90;98.00;;;;;;5113141;28;20822;-73
2022/04/30 13:08:18;;;;;;;3.57;1.77;;;15.70;98.00;;;;;;5113467;28;20465;-73
2022/04/30 13:13:40;;;;;;;1.70;1.70;;;15.50;98.00;;;;;;5075976;28;21057;-72
2022/04/30 13:16:09;;;;;;;1.57;1.50;;;15.20;98.00;;;;;;5112937;28;20459;-72
2022/04/30 13:18:36;;;;;;;1.60;1.50;;;15.00;98.00;;;;;;5113079;28;20953;-72
2022/04/30 13:21:04;;;;;;;3.33;2.17;;;14.80;98.00;;;;;;5113128;28;20960;-72
2022/04/30 13:23:32;;;;;;;2.33;1.30;;;14.50;98.00;;;;;;5113195;28;20486;-72
2022/04/30 13:26:00;;;;;;;2.17;1.53;;;14.40;98.00;;;;;;5112858;28;20884;-69
2022/04/30 13:28:27;;;;;;;3.50;1.50;;;14.30;98.00;;;;;;5113235;28;20458;-72
2022/04/30 13:30:54;;;;;;;1.30;1.23;;;14.20;98.00;;;;;;5112646;28;20456;-72
2022/04/30 13:33:21;;;;;;;1.30;1.20;;;14.10;98.00;;;;;;5094596;28;20515;-72
2022/04/30 13:35:49;;;;;;;1.20;1.13;;;14.00;98.00;;;;;;5112549;28;20505;-73
2022/04/30 13:38:17;;;;;;;2.07;1.90;;;14.00;98.00;;;;;;5112455;28;20880;-72
2022/04/30 13:40:45;;;;;;;1.87;1.30;;;13.90;98.00;;;;;;5112405;28;20484;-73
2022/04/30 13:43:14;;;;;;;1.90;1.20;;;13.90;98.00;;;;;;5112530;28;20460;-73